Time;durP1;ratioP1;P1;durP2;ratioP2;P2;SDS_P1;SDS_P2;PMS_P1;PMS_P2;Temp;Humidity;BMP_temperature;BMP_pressure;BME280_temperature;BME280_humidity;BME280_pressure;Samples;Min_cycle;Max_cycle;Signal;HPM_P1;HPM_P2
2023/02/28 00:01:14;;;;;;;7.62;4.60;;;;;;;-1.36;71.25;101426.22;1397221;88;21427;-81
2023/02/28 00:03:40;;;;;;;9.70;5.10;;;;;;;-1.30;71.20;101429.08;1402166;87;21294;-80
2023/02/28 00:06:09;;;;;;;6.85;4.10;;;;;;;-1.29;71.32;101428.66;1397199;88;21279;-80
2023/02/28 00:08:36;;;;;;;8.10;4.53;;;;;;;-1.28;70.98;101427.30;1401071;87;21317;-81
2023/02/28 00:11:05;;;;;;;9.75;5.30;;;;;;;-1.24;71.08;101434.53;1559052;87;21369;-80
2023/02/28 00:13:31;;;;;;;8.03;4.83;;;;;;;-1.17;71.07;101438.66;1394062;88;21205;-80
2023/02/28 00:16:14;;;;;;;9.00;4.60;;;;;;;-1.16;70.62;101441.64;1403612;88;21243;-81
2023/02/28 00:18:41;;;;;;;8.05;4.50;;;;;;;-1.10;70.45;101450.55;1558179;87;21163;-80
2023/02/28 00:21:08;;;;;;;7.72;4.72;;;;;;;-1.08;70.45;101451.36;1402423;88;21213;-80
2023/02/28 00:23:35;;;;;;;9.00;4.50;;;;;;;-1.04;70.52;101445.15;1396504;87;22050;-80
2023/02/28 00:26:02;;;;;;;9.83;5.17;;;;;;;-1.06;70.32;101449.56;1397142;87;21302;-79
2023/02/28 00:28:29;;;;;;;10.55;5.95;;;;;;;-1.02;70.18;101452.45;1398094;87;22211;-79
2023/02/28 00:30:57;;;;;;;7.70;4.03;;;;;;;-0.98;70.36;101458.40;1397686;87;21342;-80
2023/02/28 00:33:23;;;;;;;12.93;5.37;;;;;;;-1.00;70.16;101460.22;1402927;88;22270;-80
2023/02/28 00:35:49;;;;;;;6.42;4.15;;;;;;;-0.93;70.10;101457.35;1398434;87;21235;-80
2023/02/28 00:38:16;;;;;;;8.60;5.42;;;;;;;-0.95;70.09;101468.27;1405200;88;21399;-80
2023/02/28 00:40:42;;;;;;;8.58;4.97;;;;;;;-0.90;70.18;101474.61;1558813;88;21163;-81
2023/02/28 00:43:08;;;;;;;5.85;4.62;;;;;;;-0.91;69.87;101468.56;1398539;88;21236;-82
2023/02/28 00:45:34;;;;;;;9.15;4.95;;;;;;;-0.88;69.96;101471.97;1403560;87;21440;-81
2023/02/28 00:48:00;;;;;;;5.90;3.80;;;;;;;-0.90;69.58;101468.11;1398182;87;21221;-80
2023/02/28 00:50:27;;;;;;;9.90;5.35;;;;;;;-0.91;69.56;101469.86;1403444;87;21347;-81
2023/02/28 00:52:53;;;;;;;9.40;4.60;;;;;;;-0.87;69.61;101465.41;1396558;88;21383;-81
2023/02/28 00:55:19;;;;;;;7.10;3.75;;;;;;;-0.82;69.50;101471.77;1397056;87;22130;-80
2023/02/28 00:57:46;;;;;;;8.38;4.42;;;;;;;-0.84;69.53;101468.36;1397390;88;22101;-80
2023/02/28 01:00:13;;;;;;;8.80;5.50;;;;;;;-0.80;69.50;101469.98;1397696;87;21207;-78
2023/02/28 01:02:39;;;;;;;8.25;3.72;;;;;;;-0.78;69.45;101463.80;1407486;87;21331;-80
2023/02/28 01:05:07;;;;;;;7.03;4.30;;;;;;;-0.78;69.38;101457.77;1538426;88;22258;-80
2023/02/28 01:07:33;;;;;;;8.38;5.17;;;;;;;-0.74;69.39;101455.48;1403228;87;21302;-80
2023/02/28 01:09:59;;;;;;;7.75;4.80;;;;;;;-0.76;69.53;101453.38;1557636;87;21229;-81
2023/02/28 01:12:25;;;;;;;8.03;4.97;;;;;;;-0.75;69.45;101453.76;1397235;87;21391;-80
2023/02/28 01:14:51;;;;;;;8.53;5.47;;;;;;;-0.72;69.43;101463.63;1396751;88;22028;-81
2023/02/28 01:17:17;;;;;;;9.40;5.20;;;;;;;-0.69;69.22;101464.83;1397143;88;22123;-81
2023/02/28 01:19:44;;;;;;;8.90;5.10;;;;;;;-0.69;69.10;101471.33;1402987;87;21273;-80
2023/02/28 01:22:10;;;;;;;6.60;4.62;;;;;;;-0.66;69.38;101471.68;1398983;87;21250;-81
2023/02/28 01:24:37;;;;;;;8.13;4.75;;;;;;;-0.65;69.06;101474.67;1390720;89;21257;-81
2023/02/28 01:27:04;;;;;;;6.80;4.25;;;;;;;-0.62;69.19;101476.33;1402818;87;21435;-80
2023/02/28 01:29:30;;;;;;;8.23;4.22;;;;;;;-0.61;68.96;101480.61;1398694;88;21287;-81
2023/02/28 01:31:59;;;;;;;7.20;4.37;;;;;;;-0.57;69.01;101479.17;1554696;87;21428;-81
2023/02/28 01:34:25;;;;;;;9.83;4.20;;;;;;;-0.64;68.90;101489.36;1555197;88;21428;-81
2023/02/28 01:36:51;;;;;;;7.40;4.97;;;;;;;-0.54;68.93;101477.77;1398371;88;22232;-82
2023/02/28 01:39:17;;;;;;;8.80;4.80;;;;;;;-0.52;69.19;101481.60;1403532;88;21616;-81
2023/02/28 01:41:44;;;;;;;7.58;4.50;;;;;;;-0.49;68.89;101481.08;1397440;88;21235;-81
2023/02/28 01:44:52;;;;;;;8.45;4.12;;;;;;;-0.47;68.71;101487.05;1403413;87;21387;-80
2023/02/28 01:47:18;;;;;;;8.88;4.35;;;;;;;-0.44;68.56;101489.16;1399885;88;21449;-81
2023/02/28 01:49:45;;;;;;;7.35;5.08;;;;;;;-0.42;68.87;101475.66;1390069;89;21222;-81
2023/02/28 01:52:18;;;;;;;8.83;4.47;;;;;;;-0.46;68.73;101473.17;1396778;88;21391;-83
2023/02/28 01:54:41;;;;;;;5.87;4.47;;;;;;;-0.42;68.91;101483.01;1416068;87;21390;-82
2023/02/28 01:57:13;;;;;;;7.08;4.15;;;;;;;-0.43;68.67;101486.95;1397212;88;22197;-79
2023/02/28 01:59:48;;;;;;;9.85;4.90;;;;;;;-0.45;68.60;101483.11;1399461;88;21316;-81
2023/02/28 02:02:16;;;;;;;10.20;4.97;;;;;;;-0.44;68.63;101480.06;1557679;88;22043;-80
2023/02/28 02:04:57;;;;;;;8.30;4.90;;;;;;;-0.43;68.49;101487.83;1393779;89;21745;-80
2023/02/28 02:07:26;;;;;;;11.22;4.65;;;;;;;-0.44;68.65;101486.10;1398534;88;21309;-81
2023/02/28 02:10:03;;;;;;;8.23;5.47;;;;;;;-0.46;68.65;101480.97;1396157;88;21206;-81
2023/02/28 02:12:54;;;;;;;6.65;4.05;;;;;;;-0.44;68.72;101477.45;1558794;87;21177;-80
2023/02/28 02:15:38;;;;;;;8.30;4.73;;;;;;;-0.46;68.76;101487.92;1558336;87;21132;-80
2023/02/28 02:18:25;;;;;;;8.13;4.78;;;;;;;-0.40;68.56;101492.05;1552858;88;21339;-80
2023/02/28 02:21:17;;;;;;;9.28;5.45;;;;;;;-0.44;68.72;101488.70;1399123;89;21257;-78
2023/02/28 02:24:04;;;;;;;6.78;4.65;;;;;;;-0.36;68.71;101485.86;1532485;88;21438;-80
2023/02/28 02:26:54;;;;;;;9.65;4.53;;;;;;;-0.44;68.49;101493.06;1448257;87;21368;-80
2023/02/28 02:30:02;;;;;;;7.53;4.55;;;;;;;-0.41;68.82;101495.56;1509721;88;21490;-81
2023/02/28 02:33:07;;;;;;;8.13;5.37;;;;;;;-0.42;68.96;101496.47;1397704;87;21288;-79
2023/02/28 02:35:51;;;;;;;6.50;4.33;;;;;;;-0.42;68.96;101495.17;1396307;88;21235;-79
2023/02/28 02:38:35;;;;;;;6.72;4.62;;;;;;;-0.43;69.09;101497.34;1400266;88;21316;-80
2023/02/28 02:41:29;;;;;;;9.45;5.53;;;;;;;-0.48;69.05;101494.47;1416756;88;22271;-79
2023/02/28 02:44:03;;;;;;;8.00;4.37;;;;;;;-0.41;69.02;101507.27;1558402;87;21309;-80
2023/02/28 02:46:37;;;;;;;8.98;4.78;;;;;;;-0.42;69.07;101508.17;1447368;88;21414;-80
2023/02/28 02:49:08;;;;;;;6.83;4.17;;;;;;;-0.42;68.91;101511.63;1558684;87;21332;-80
2023/02/28 02:51:36;;;;;;;7.17;4.47;;;;;;;-0.42;68.90;101510.77;1558766;88;22109;-79
2023/02/28 02:54:07;;;;;;;9.23;4.83;;;;;;;-0.42;69.13;101512.08;1388703;89;21405;-80
2023/02/28 02:56:35;;;;;;;7.35;4.30;;;;;;;-0.39;69.05;101517.17;1551677;88;21294;-80
2023/02/28 02:59:06;;;;;;;11.08;6.42;;;;;;;-0.38;69.00;101509.76;1557550;88;21381;-80
2023/02/28 03:01:34;;;;;;;5.03;2.87;;;;;;;-0.41;69.01;101512.47;1393133;89;21258;-79
2023/02/28 03:04:11;;;;;;;6.67;4.70;;;;;;;-0.43;69.26;101512.95;1395881;89;21339;-80
2023/02/28 03:06:37;;;;;;;7.03;4.62;;;;;;;-0.48;69.32;101510.07;1445498;87;21453;-82
2023/02/28 03:09:04;;;;;;;13.15;6.15;;;;;;;-0.45;69.20;101509.13;1398290;87;21243;-82
2023/02/28 03:11:32;;;;;;;8.23;4.75;;;;;;;-0.48;69.23;101505.33;1403042;88;21406;-80
2023/02/28 03:14:26;;;;;;;10.35;5.83;;;;;;;-0.55;69.36;101504.66;1398573;88;21213;-81
2023/02/28 03:17:33;;;;;;;8.23;5.33;;;;;;;-0.55;69.48;101502.05;1547173;88;21295;-81
2023/02/28 03:20:13;;;;;;;10.82;4.92;;;;;;;-0.59;69.64;101498.32;1557580;88;21162;-81
2023/02/28 03:23:06;;;;;;;10.88;5.87;;;;;;;-0.62;69.45;101494.06;1395778;89;21464;-80
2023/02/28 03:25:54;;;;;;;7.50;4.25;;;;;;;-0.64;69.70;101493.26;1519900;87;21538;-80
2023/02/28 03:28:26;;;;;;;8.65;5.65;;;;;;;-0.67;70.17;101492.52;1557634;87;22028;-80
2023/02/28 03:31:03;;;;;;;9.60;5.70;;;;;;;-0.71;70.12;101496.52;1556916;88;21998;-80
2023/02/28 03:33:35;;;;;;;7.78;4.67;;;;;;;-0.66;69.98;101492.91;1401576;91;21265;-81
2023/02/28 03:36:13;;;;;;;7.90;5.33;;;;;;;-0.71;70.43;101498.27;1551148;87;22367;-78
2023/02/28 03:38:55;;;;;;;6.95;4.30;;;;;;;-0.71;70.35;101495.67;1558829;87;21140;-81
2023/02/28 03:41:41;;;;;;;8.85;5.05;;;;;;;-0.70;70.11;101493.01;1552720;88;21294;-80
2023/02/28 03:44:15;;;;;;;10.80;6.00;;;;;;;-0.69;70.20;101504.28;1394923;90;21310;-80
2023/02/28 03:46:50;;;;;;;10.70;4.15;;;;;;;-0.67;70.34;101507.66;1447486;87;21492;-80
2023/02/28 03:49:22;;;;;;;9.35;5.55;;;;;;;-0.66;70.25;101513.70;1553930;87;21449;-82
2023/02/28 03:51:50;;;;;;;7.33;4.75;;;;;;;-0.71;70.38;101503.02;1393795;88;21450;-81
2023/02/28 03:54:22;;;;;;;11.25;5.33;;;;;;;-0.73;70.46;101507.86;1401492;87;21212;-81
2023/02/28 03:57:17;;;;;;;9.75;4.92;;;;;;;-0.76;70.37;101503.61;1556764;87;21288;-79
2023/02/28 03:59:52;;;;;;;8.48;5.22;;;;;;;-0.81;70.42;101501.59;1544318;88;21508;-80
2023/02/28 04:02:18;;;;;;;9.20;5.55;;;;;;;-0.83;70.50;101498.67;1554632;88;22166;-78
2023/02/28 04:04:48;;;;;;;9.45;5.80;;;;;;;-0.83;70.48;101499.52;1403950;88;21340;-78
2023/02/28 04:07:12;;;;;;;6.85;4.50;;;;;;;-0.80;70.39;101495.97;1407371;88;21294;-80
2023/02/28 04:09:39;;;;;;;10.38;5.70;;;;;;;-0.80;70.29;101498.13;1398051;87;21443;-79
2023/02/28 04:12:06;;;;;;;9.63;5.78;;;;;;;-0.81;70.10;101497.70;1489453;88;21391;-80
2023/02/28 04:14:32;;;;;;;9.60;5.45;;;;;;;-0.82;70.19;101502.50;1476337;87;21354;-81
2023/02/28 04:16:58;;;;;;;8.55;4.30;;;;;;;-0.85;70.40;101503.06;1472358;88;22402;-81
2023/02/28 04:19:24;;;;;;;7.78;5.75;;;;;;;-0.88;70.11;101495.36;1466707;87;21353;-81
2023/02/28 04:21:53;;;;;;;9.63;6.50;;;;;;;-0.92;70.24;101507.61;1463165;88;21397;-82
2023/02/28 04:24:26;;;;;;;9.60;6.08;;;;;;;-0.98;70.47;101509.95;1468141;88;21361;-80
2023/02/28 04:26:55;;;;;;;7.47;5.03;;;;;;;-1.03;70.88;101507.94;1467215;88;21360;-79
2023/02/28 04:29:28;;;;;;;11.80;5.67;;;;;;;-1.09;71.34;101512.02;1557546;88;21391;-81
2023/02/28 04:31:57;;;;;;;8.95;5.55;;;;;;;-1.09;71.02;101510.72;1392974;88;21184;-80
2023/02/28 04:34:26;;;;;;;11.85;6.62;;;;;;;-1.16;71.67;101509.19;1446331;87;21534;-78
2023/02/28 04:36:54;;;;;;;11.15;6.10;;;;;;;-1.15;71.80;101514.36;1469334;88;21382;-81
2023/02/28 04:39:22;;;;;;;8.40;5.25;;;;;;;-1.10;71.15;101511.60;1476605;87;21508;-81
2023/02/28 04:41:49;;;;;;;9.60;5.90;;;;;;;-1.07;71.34;101507.61;1494875;87;21368;-80
2023/02/28 04:44:15;;;;;;;9.33;6.42;;;;;;;-1.03;71.38;101517.48;1460217;88;21367;-78
2023/02/28 04:46:43;;;;;;;10.58;6.35;;;;;;;-0.99;71.19;101517.32;1475031;87;23025;-79
2023/02/28 04:49:12;;;;;;;7.55;5.42;;;;;;;-0.95;71.15;101511.16;1474514;87;21375;-80
2023/02/28 04:51:39;;;;;;;9.10;6.85;;;;;;;-0.94;71.31;101510.24;1401010;87;21508;-81
2023/02/28 04:54:05;;;;;;;7.75;5.67;;;;;;;-0.95;71.25;101519.38;1554845;88;21257;-79
2023/02/28 04:56:32;;;;;;;8.70;5.37;;;;;;;-0.91;70.91;101526.20;1397472;88;22286;-80
2023/02/28 04:58:58;;;;;;;12.45;7.20;;;;;;;-0.91;71.00;101526.20;1452542;88;21353;-77
2023/02/28 05:01:34;;;;;;;10.13;6.12;;;;;;;-0.87;70.74;101530.38;1470517;88;21359;-77
2023/02/28 05:04:04;;;;;;;9.10;6.62;;;;;;;-0.85;71.25;101534.25;1472093;88;21456;-80
2023/02/28 05:06:33;;;;;;;9.95;5.80;;;;;;;-0.87;70.93;101533.44;1466127;88;21635;-80
2023/02/28 05:08:59;;;;;;;10.05;6.03;;;;;;;-0.91;70.98;101534.84;1469632;88;21552;-80
2023/02/28 05:11:35;;;;;;;11.18;6.03;;;;;;;-0.96;71.42;101532.82;1469435;88;22314;-81
2023/02/28 05:14:03;;;;;;;12.35;6.87;;;;;;;-0.99;71.76;101529.47;1470886;88;21531;-80
2023/02/28 05:16:30;;;;;;;11.48;6.67;;;;;;;-1.03;71.77;101528.72;1471932;87;22293;-79
2023/02/28 05:18:57;;;;;;;12.53;7.60;;;;;;;-1.02;71.83;101531.71;1474295;88;21523;-79
2023/02/28 05:21:37;;;;;;;11.85;6.97;;;;;;;-0.98;71.63;101541.55;1470763;87;21938;-79
2023/02/28 05:24:11;;;;;;;13.08;6.87;;;;;;;-0.93;71.76;101543.12;1478475;87;21634;-80
2023/02/28 05:26:41;;;;;;;12.30;7.47;;;;;;;-0.87;71.66;101541.23;1458716;88;21428;-80
2023/02/28 05:29:08;;;;;;;13.20;8.15;;;;;;;-0.85;71.62;101542.05;1558958;88;21221;-80
2023/02/28 05:31:35;;;;;;;11.48;6.83;;;;;;;-0.85;71.72;101539.00;1395873;87;21361;-78
2023/02/28 05:34:03;;;;;;;13.35;7.28;;;;;;;-0.84;71.75;101542.44;1396441;87;21465;-77
2023/02/28 05:36:30;;;;;;;12.45;7.00;;;;;;;-0.82;71.65;101544.55;1395690;88;21214;-79
2023/02/28 05:38:57;;;;;;;13.18;6.45;;;;;;;-0.86;71.53;101545.53;1402033;87;22235;-79
2023/02/28 05:41:23;;;;;;;12.60;6.75;;;;;;;-0.91;71.45;101547.83;1396853;88;21191;-80
2023/02/28 05:43:50;;;;;;;10.60;6.45;;;;;;;-0.89;71.72;101557.31;1402676;88;21236;-80
2023/02/28 05:46:16;;;;;;;13.72;7.20;;;;;;;-0.90;71.67;101552.58;1479347;87;21465;-80
2023/02/28 05:48:46;;;;;;;13.38;6.65;;;;;;;-0.89;71.82;101558.62;1397100;88;21198;-80
2023/02/28 05:51:13;;;;;;;8.35;5.53;;;;;;;-0.83;72.00;101561.05;1552031;87;22116;-79
2023/02/28 05:53:39;;;;;;;12.35;7.05;;;;;;;-0.85;71.87;101566.74;1396668;88;21243;-76
2023/02/28 05:56:05;;;;;;;15.35;7.92;;;;;;;-0.79;71.88;101571.30;1403175;87;21596;-76
2023/02/28 05:58:32;;;;;;;10.55;7.15;;;;;;;-0.75;71.99;101564.24;1396682;87;22035;-76
2023/02/28 06:00:59;;;;;;;11.93;6.55;;;;;;;-0.78;71.62;101559.14;1409272;88;21479;-78
2023/02/28 06:03:29;;;;;;;10.63;6.95;;;;;;;-0.78;71.92;101561.28;1395372;87;21339;-76
2023/02/28 06:05:55;;;;;;;12.10;7.12;;;;;;;-0.83;72.11;101562.36;1399952;87;21575;-77
2023/02/28 06:08:21;;;;;;;9.43;5.58;;;;;;;-0.81;72.05;101561.84;1548161;88;21288;-77
2023/02/28 06:10:47;;;;;;;11.28;6.33;;;;;;;-0.93;72.05;101550.91;1398363;87;21387;-76
2023/02/28 06:13:14;;;;;;;13.68;7.12;;;;;;;-0.86;72.10;101557.22;1404360;88;22049;-77
2023/02/28 06:15:40;;;;;;;10.90;6.15;;;;;;;-0.85;71.86;101554.59;1550719;88;21331;-78
2023/02/28 06:18:07;;;;;;;11.70;6.33;;;;;;;-0.79;71.75;101553.09;1404316;87;21243;-78
2023/02/28 06:20:34;;;;;;;13.90;6.67;;;;;;;-0.80;71.50;101554.46;1478168;87;21396;-76
2023/02/28 06:23:00;;;;;;;10.72;6.28;;;;;;;-0.86;71.56;101550.72;1471369;88;21382;-77
2023/02/28 06:25:27;;;;;;;9.33;6.08;;;;;;;-0.86;71.90;101549.42;1467462;87;21931;-76
2023/02/28 06:27:55;;;;;;;10.23;6.45;;;;;;;-0.78;71.96;101551.34;1473451;88;21353;-76
2023/02/28 06:30:25;;;;;;;10.23;6.30;;;;;;;-0.77;71.57;101556.97;1471394;88;21330;-77
2023/02/28 06:32:50;;;;;;;9.80;6.45;;;;;;;-0.69;71.51;101554.98;1395888;87;21405;-77
2023/02/28 06:35:16;;;;;;;10.80;6.83;;;;;;;-0.64;71.78;101554.36;1398196;87;21391;-76
2023/02/28 06:37:43;;;;;;;9.85;5.80;;;;;;;-0.61;71.55;101554.27;1403986;87;21465;-78
2023/02/28 06:40:12;;;;;;;10.80;6.62;;;;;;;-0.61;71.45;101545.62;1397120;87;21295;-77
2023/02/28 06:42:39;;;;;;;12.63;5.87;;;;;;;-0.62;71.37;101543.47;1400270;88;21198;-77
2023/02/28 06:45:08;;;;;;;9.43;6.12;;;;;;;-0.59;71.48;101544.67;1558862;87;21332;-78
2023/02/28 06:47:36;;;;;;;9.53;5.47;;;;;;;-0.57;71.33;101545.48;1558261;87;21294;-77
2023/02/28 06:50:05;;;;;;;12.53;7.03;;;;;;;-0.55;71.43;101541.06;1402538;87;22064;-76
2023/02/28 06:52:31;;;;;;;12.18;7.42;;;;;;;-0.53;71.45;101535.83;1395860;88;21243;-78
2023/02/28 06:55:00;;;;;;;9.68;5.60;;;;;;;-0.47;71.22;101535.63;1404204;87;22311;-77
2023/02/28 06:57:31;;;;;;;11.65;6.17;;;;;;;-0.39;70.97;101534.08;1395298;88;22101;-76
2023/02/28 07:00:00;;;;;;;12.98;7.00;;;;;;;-0.36;71.04;101535.28;1396650;88;21390;-77
2023/02/28 07:02:27;;;;;;;10.80;7.25;;;;;;;-0.30;71.00;101533.31;1389368;88;21206;-75
2023/02/28 07:04:53;;;;;;;10.60;6.85;;;;;;;-0.20;70.77;101535.18;1402816;87;21321;-77
2023/02/28 07:07:20;;;;;;;9.73;6.87;;;;;;;-0.15;70.48;101533.25;1418687;87;21361;-77
2023/02/28 07:09:46;;;;;;;11.97;6.17;;;;;;;-0.09;70.15;101536.94;1398600;88;21244;-78
2023/02/28 07:12:13;;;;;;;9.60;5.87;;;;;;;-0.04;70.05;101546.75;1403844;87;22308;-78
2023/02/28 07:14:39;;;;;;;11.43;6.30;;;;;;;-0.04;69.63;101546.75;1557752;87;21485;-77
2023/02/28 07:17:08;;;;;;;12.40;6.90;;;;;;;-0.05;69.54;101554.16;1397243;87;21802;-76
2023/02/28 07:19:34;;;;;;;10.83;7.20;;;;;;;0.06;69.49;101552.94;1400606;87;21604;-74
2023/02/28 07:22:02;;;;;;;11.53;7.63;;;;;;;0.16;69.58;101559.08;1399829;87;21472;-75
2023/02/28 07:24:29;;;;;;;13.10;7.00;;;;;;;0.27;69.67;101561.77;1400818;87;21588;-81
2023/02/28 07:26:55;;;;;;;8.97;5.97;;;;;;;0.32;69.18;101562.02;1443371;87;21968;-80
2023/02/28 07:29:22;;;;;;;10.27;7.10;;;;;;;0.42;69.49;101566.42;1398068;87;22258;-81
2023/02/28 07:31:50;;;;;;;9.17;6.17;;;;;;;0.48;68.83;101571.88;1398602;88;21470;-80
2023/02/28 07:34:16;;;;;;;9.73;5.77;;;;;;;0.59;68.87;101569.73;1388416;88;22346;-81
2023/02/28 07:36:42;;;;;;;11.20;7.33;;;;;;;0.64;68.48;101570.42;1404429;87;21515;-80
2023/02/28 07:39:09;;;;;;;12.23;6.93;;;;;;;0.66;67.96;101569.89;1558043;87;21617;-79
2023/02/28 07:41:39;;;;;;;9.53;6.60;;;;;;;0.73;67.89;101568.77;1397941;87;21508;-80
2023/02/28 07:44:04;;;;;;;10.13;6.53;;;;;;;0.83;68.01;101575.33;1551095;88;21658;-80
2023/02/28 07:46:34;;;;;;;9.40;6.83;;;;;;;0.88;67.13;101570.80;1397041;87;21554;-81
2023/02/28 07:48:59;;;;;;;22.00;7.10;;;;;;;0.89;67.12;101580.34;1395067;88;21533;-81
2023/02/28 07:51:25;;;;;;;12.47;6.87;;;;;;;1.00;67.41;101575.16;1396060;87;21688;-79
2023/02/28 07:57:50;;;;;;;10.70;6.50;;;;;;;1.14;66.71;101579.39;1557686;88;21301;-79
2023/02/28 08:00:17;;;;;;;12.53;6.70;;;;;;;1.30;66.81;101575.29;1399121;87;21404;-80
2023/02/28 08:02:43;;;;;;;11.63;6.57;;;;;;;1.31;65.96;101583.50;1395624;89;22211;-79
2023/02/28 08:05:09;;;;;;;17.17;6.23;;;;;;;1.16;65.28;101581.50;1401529;88;21420;-79
2023/02/28 08:07:36;;;;;;;15.07;8.10;;;;;;;1.13;66.18;101584.22;1395480;87;21716;-78
2023/02/28 08:10:02;;;;;;;9.40;5.63;;;;;;;1.12;66.07;101578.59;1398172;88;21249;-79
2023/02/28 08:12:28;;;;;;;23.50;8.40;;;;;;;0.97;65.96;101577.42;1397218;87;21424;-80
2023/02/28 08:14:55;;;;;;;14.33;7.90;;;;;;;1.09;66.50;101579.59;1403178;88;21633;-79
2023/02/28 08:17:21;;;;;;;12.97;7.97;;;;;;;1.11;66.51;101578.20;1397766;88;21679;-78
2023/02/28 08:19:47;;;;;;;15.13;8.33;;;;;;;1.22;66.59;101577.34;1397451;88;22432;-80
2023/02/28 08:22:26;;;;;;;12.67;7.63;;;;;;;1.11;65.75;101579.52;1403526;87;21712;-79
2023/02/28 08:24:52;;;;;;;10.30;7.33;;;;;;;1.13;66.18;101581.62;1397558;87;21488;-79
2023/02/28 08:27:18;;;;;;;13.57;8.00;;;;;;;1.20;66.08;101577.00;1404053;88;21529;-81
2023/02/28 08:29:44;;;;;;;11.20;7.27;;;;;;;1.31;66.11;101579.58;1390297;89;21488;-80
2023/02/28 08:32:10;;;;;;;13.07;6.73;;;;;;;1.46;65.80;101581.20;1398847;87;21482;-80
2023/02/28 08:34:40;;;;;;;12.73;6.57;;;;;;;1.57;65.97;101590.29;1405022;88;22403;-80
2023/02/28 08:37:06;;;;;;;10.50;6.60;;;;;;;1.48;64.83;101580.69;1387022;89;22320;-80
2023/02/28 08:39:36;;;;;;;13.50;8.73;;;;;;;1.62;65.18;101576.23;1402824;88;21685;-80
2023/02/28 08:42:04;;;;;;;15.93;8.60;;;;;;;1.58;65.06;101579.39;1549849;87;21556;-79
2023/02/28 08:44:30;;;;;;;13.47;7.97;;;;;;;1.67;64.87;101575.13;1465753;88;21734;-80
2023/02/28 08:46:56;;;;;;;12.40;7.57;;;;;;;1.82;65.06;101574.11;1473605;88;21608;-79
2023/02/28 08:49:23;;;;;;;11.53;7.20;;;;;;;1.91;64.46;101578.94;1474560;88;21590;-79
2023/02/28 08:51:49;;;;;;;10.30;6.30;;;;;;;1.92;64.63;101574.10;1478035;87;22689;-80
2023/02/28 08:54:19;;;;;;;10.20;6.80;;;;;;;2.05;64.34;101579.67;1460761;88;22511;-79
2023/02/28 08:56:43;;;;;;;13.20;7.27;;;;;;;1.92;63.59;101576.25;1472629;88;21762;-80
2023/02/28 08:59:09;;;;;;;10.40;6.17;;;;;;;1.76;63.65;101576.05;1472639;87;21806;-79
2023/02/28 09:01:36;;;;;;;9.83;6.40;;;;;;;1.77;63.65;101580.81;1471485;88;21669;-78
2023/02/28 09:04:03;;;;;;;10.57;6.60;;;;;;;1.93;64.20;101583.66;1479889;88;21691;-80
2023/02/28 09:10:29;;;;;;;15.50;9.10;;;;;;;2.03;63.32;101583.64;1476164;88;22718;-80
2023/02/28 09:12:55;;;;;;;12.03;6.30;;;;;;;1.99;63.53;101584.70;1474729;88;21750;-79
2023/02/28 09:15:21;;;;;;;12.10;7.33;;;;;;;1.99;62.93;101583.39;1470119;87;21676;-78
2023/02/28 09:17:48;;;;;;;14.03;8.27;;;;;;;2.06;63.37;101586.59;1475694;88;22827;-80
2023/02/28 09:20:14;;;;;;;12.63;8.43;;;;;;;2.15;63.71;101590.11;1475051;87;22739;-79
2023/02/28 09:22:40;;;;;;;13.57;7.97;;;;;;;2.21;63.30;101582.01;1475235;87;21720;-79
2023/02/28 09:25:07;;;;;;;11.43;8.43;;;;;;;2.43;63.42;101588.47;1473567;87;21669;-82
2023/02/28 09:27:33;;;;;;;14.57;9.13;;;;;;;2.52;63.49;101585.45;1474266;87;21748;-80
2023/02/28 09:29:59;;;;;;;15.20;9.07;;;;;;;2.68;63.21;101589.55;1469323;88;22687;-82
2023/02/28 09:32:25;;;;;;;10.27;6.83;;;;;;;2.78;62.71;101592.59;1474730;88;21809;-81
2023/02/28 09:34:55;;;;;;;11.13;6.70;;;;;;;2.80;61.72;101590.77;1474608;88;21799;-80
2023/02/28 09:37:21;;;;;;;27.97;14.97;;;;;;;2.70;61.80;101593.80;1470178;88;22848;-79
2023/02/28 09:39:47;;;;;;;14.93;9.77;;;;;;;2.75;62.36;101582.27;1470308;88;21755;-80
2023/02/28 09:42:19;;;;;;;12.33;9.10;;;;;;;2.82;61.98;101579.32;1476502;87;22121;-81
2023/02/28 09:44:48;;;;;;;13.93;8.10;;;;;;;3.07;62.33;101580.80;1475178;87;22039;-80
2023/02/28 09:47:33;;;;;;;11.17;7.60;;;;;;;3.07;62.33;101580.80;1471621;88;22066;-82
2023/02/28 09:50:10;;;;;;;12.83;7.30;;;;;;;3.26;61.98;101586.03;1471275;87;22105;-83
2023/02/28 09:52:37;;;;;;;13.37;6.93;;;;;;;3.26;61.98;101586.03;1470137;88;22160;-82
2023/02/28 09:55:41;;;;;;;9.53;6.93;;;;;;;3.41;61.66;101584.45;1466202;87;23092;-80
2023/02/28 09:58:28;;;;;;;12.00;8.13;;;;;;;3.45;60.73;101588.14;1464005;87;22134;-80
2023/02/28 10:01:06;;;;;;;9.83;6.87;;;;;;;3.65;61.30;101582.41;1471798;88;23187;-80
2023/02/28 10:03:45;;;;;;;10.90;7.43;;;;;;;3.74;60.68;101582.83;1474684;87;22405;-81
2023/02/28 10:06:25;;;;;;;10.77;7.13;;;;;;;3.69;60.00;101581.36;1462223;88;22127;-80
2023/02/28 10:09:05;;;;;;;7.97;6.10;;;;;;;3.79;60.53;101582.58;1474243;87;23043;-82
2023/02/28 10:11:35;;;;;;;8.60;6.73;;;;;;;3.81;59.00;101579.43;1471618;87;22336;-82
2023/02/28 10:14:20;;;;;;;10.33;7.10;;;;;;;3.87;59.07;101579.13;1473416;88;22961;-82
2023/02/28 10:16:53;;;;;;;12.23;8.43;;;;;;;3.83;58.48;101581.52;1473182;87;22071;-80
2023/02/28 10:19:36;;;;;;;13.60;6.70;;;;;;;3.66;58.17;101577.58;1472351;88;22100;-79
2023/02/28 10:22:17;;;;;;;15.90;10.60;;;;;;;3.70;58.44;101578.64;1458498;87;22131;-81
2023/02/28 10:24:56;;;;;;;12.13;7.53;;;;;;;3.85;59.67;101580.96;1469126;88;22081;-82
2023/02/28 10:27:25;;;;;;;10.57;7.07;;;;;;;3.80;58.34;101572.51;1471507;87;22556;-80
2023/02/28 10:30:03;;;;;;;19.37;12.00;;;;;;;3.89;58.75;101579.91;1474981;88;22046;-81
2023/02/28 10:32:35;;;;;;;11.13;6.40;;;;;;;4.01;59.26;101583.20;1467756;88;22024;-80
2023/02/28 10:35:18;;;;;;;10.60;7.00;;;;;;;3.81;58.27;101578.12;1472374;88;22610;-81
2023/02/28 10:37:52;;;;;;;9.80;6.57;;;;;;;3.86;58.75;101581.83;1472540;87;23177;-78
2023/02/28 10:40:24;;;;;;;10.53;7.03;;;;;;;3.91;61.59;101571.48;1462548;88;22445;-76
2023/02/28 10:43:07;;;;;;;9.57;6.87;;;;;;;4.37;60.60;101550.79;1474954;88;22711;-78
2023/02/28 10:45:38;;;;;;;9.33;6.07;;;;;;;4.36;59.12;101534.69;1469717;88;21442;-76
2023/02/28 10:48:17;;;;;;;11.35;6.42;;;;;;;4.36;59.12;101534.69;1551497;88;22220;-78
2023/02/28 10:50:57;;;;;;;10.90;7.03;;;;;;;4.68;59.08;101546.55;1537223;88;21302;-76
2023/02/28 10:53:32;;;;;;;15.13;8.87;;;;;;;4.88;58.32;101546.32;1395887;89;21390;-78
2023/02/28 10:56:12;;;;;;;8.67;6.40;;;;;;;5.21;58.69;101553.28;1556987;88;21213;-80
2023/02/28 10:58:58;;;;;;;7.92;5.90;;;;;;;5.24;54.26;101542.61;1557297;88;21542;-79
2023/02/28 11:01:35;;;;;;;9.77;6.33;;;;;;;4.92;54.90;101540.44;1551010;87;21271;-85
2023/02/28 11:04:03;;;;;;;9.80;7.53;;;;;;;4.97;55.93;101543.66;1475605;87;21346;-78
2023/02/28 11:06:33;;;;;;;8.87;6.13;;;;;;;5.04;56.19;101536.31;1475128;88;21404;-78
2023/02/28 11:09:04;;;;;;;12.03;6.50;;;;;;;4.88;54.74;101530.58;1470390;88;21508;-79
2023/02/28 11:11:45;;;;;;;8.73;5.97;;;;;;;4.92;55.08;101525.56;1469072;88;21472;-78
2023/02/28 11:14:26;;;;;;;9.83;6.50;;;;;;;4.85;55.90;101529.44;1471754;87;21352;-77
2023/02/28 11:16:53;;;;;;;9.75;6.65;;;;;;;4.80;55.73;101530.15;1478036;87;21935;-79
2023/02/28 11:19:28;;;;;;;10.80;6.57;;;;;;;5.03;55.69;101526.73;1468579;87;21383;-78
2023/02/28 11:22:05;;;;;;;20.73;12.47;;;;;;;5.05;55.47;101523.57;1474305;88;23174;-80
2023/02/28 11:24:36;;;;;;;12.03;7.80;;;;;;;5.23;56.45;101514.66;1476753;88;21479;-82
2023/02/28 11:27:02;;;;;;;12.10;7.83;;;;;;;5.24;55.58;101524.23;1476350;88;21471;-83
2023/02/28 11:29:32;;;;;;;28.57;14.67;;;;;;;5.24;55.54;101522.09;1477179;87;21382;-83
2023/02/28 11:32:19;;;;;;;40.80;20.03;;;;;;;5.44;56.03;101515.23;1465319;88;21389;-84
2023/02/28 11:34:47;;;;;;;11.90;7.53;;;;;;;5.62;56.39;101512.01;1467760;88;22425;-84
2023/02/28 11:37:17;;;;;;;13.23;8.17;;;;;;;5.46;55.21;101508.56;1473804;87;21376;-85
2023/02/28 11:39:45;;;;;;;33.95;20.32;;;;;;;5.34;55.20;101508.33;1475639;88;21419;-82
2023/02/28 11:42:41;;;;;;;26.50;16.67;;;;;;;5.52;56.06;101506.42;1472618;88;21524;-82
2023/02/28 11:45:34;;;;;;;12.90;9.20;;;;;;;5.56;54.94;101508.43;1466464;88;21449;-82
2023/02/28 11:48:25;;;;;;;8.83;5.93;;;;;;;5.51;55.25;101505.22;1481996;87;22949;-80
2023/02/28 11:51:12;;;;;;;14.25;9.88;;;;;;;5.59;54.77;101499.05;1465618;88;22344;-81